sensor_id;sensor_type;location;lat;lon;timestamp;pressure;altitude;pressure_sealevel;temperature;humidity
8941;BME280;4505;43.406;23.226;2022-11-18T00:00:51;98786.63;;;9.16;100.00
8941;BME280;4505;43.406;23.226;2022-11-18T00:03:25;98791.88;;;9.33;100.00
8941;BME280;4505;43.406;23.226;2022-11-18T00:05:59;98789.00;;;9.34;100.00
8941;BME280;4505;43.406;23.226;2022-11-18T00:08:27;98787.69;;;9.15;100.00
8941;BME280;4505;43.406;23.226;2022-11-18T00:10:56;98788.22;;;9.17;100.00
8941;BME280;4505;43.406;23.226;2022-11-18T00:13:23;98793.28;;;9.19;100.00
8941;BME280;4505;43.406;23.226;2022-11-18T00:16:08;98787.13;;;9.13;100.00
8941;BME280;4505;43.406;23.226;2022-11-18T00:18:35;98778.31;;;9.08;100.00
8941;BME280;4505;43.406;23.226;2022-11-18T00:21:02;98785.25;;;9.14;100.00
8941;BME280;4505;43.406;23.226;2022-11-18T00:23:30;98782.50;;;9.04;100.00
8941;BME280;4505;43.406;23.226;2022-11-18T00:26:00;98773.44;;;9.00;100.00
8941;BME280;4505;43.406;23.226;2022-11-18T00:28:27;98774.56;;;9.04;100.00
8941;BME280;4505;43.406;23.226;2022-11-18T00:30:58;98772.16;;;9.02;100.00
8941;BME280;4505;43.406;23.226;2022-11-18T00:33:25;98772.59;;;8.94;100.00
8941;BME280;4505;43.406;23.226;2022-11-18T00:35:52;98775.34;;;8.83;100.00
8941;BME280;4505;43.406;23.226;2022-11-18T00:38:18;98779.41;;;8.90;100.00
8941;BME280;4505;43.406;23.226;2022-11-18T00:40:46;98786.44;;;9.01;100.00
8941;BME280;4505;43.406;23.226;2022-11-18T00:43:13;98790.94;;;9.01;100.00
8941;BME280;4505;43.406;23.226;2022-11-18T00:45:38;98790.06;;;8.95;100.00
8941;BME280;4505;43.406;23.226;2022-11-18T00:48:05;98795.59;;;8.94;100.00
8941;BME280;4505;43.406;23.226;2022-11-18T00:50:32;98790.91;;;8.79;100.00
8941;BME280;4505;43.406;23.226;2022-11-18T00:52:59;98784.03;;;8.78;100.00
8941;BME280;4505;43.406;23.226;2022-11-18T00:55:25;98779.56;;;8.84;100.00
8941;BME280;4505;43.406;23.226;2022-11-18T00:57:53;98782.72;;;8.81;100.00
8941;BME280;4505;43.406;23.226;2022-11-18T01:00:20;98769.25;;;8.82;100.00
8941;BME280;4505;43.406;23.226;2022-11-18T01:02:47;98769.00;;;8.84;100.00
8941;BME280;4505;43.406;23.226;2022-11-18T01:05:13;98766.84;;;8.81;100.00
8941;BME280;4505;43.406;23.226;2022-11-18T01:07:40;98769.91;;;8.73;100.00
8941;BME280;4505;43.406;23.226;2022-11-18T01:10:07;98769.72;;;8.79;100.00
8941;BME280;4505;43.406;23.226;2022-11-18T01:12:34;98769.91;;;8.73;100.00
8941;BME280;4505;43.406;23.226;2022-11-18T01:15:19;98762.22;;;8.71;100.00
8941;BME280;4505;43.406;23.226;2022-11-18T01:17:46;98764.44;;;8.79;100.00
8941;BME280;4505;43.406;23.226;2022-11-18T01:20:13;98764.50;;;8.84;100.00
8941;BME280;4505;43.406;23.226;2022-11-18T01:22:53;98756.56;;;8.84;100.00
8941;BME280;4505;43.406;23.226;2022-11-18T01:25:20;98751.53;;;8.83;100.00
8941;BME280;4505;43.406;23.226;2022-11-18T01:27:46;98754.34;;;8.76;100.00
8941;BME280;4505;43.406;23.226;2022-11-18T01:30:13;98745.50;;;8.70;100.00
8941;BME280;4505;43.406;23.226;2022-11-18T01:32:42;98740.78;;;8.73;100.00
8941;BME280;4505;43.406;23.226;2022-11-18T01:35:17;98743.53;;;8.61;100.00
8941;BME280;4505;43.406;23.226;2022-11-18T01:37:43;98753.78;;;8.74;100.00
8941;BME280;4505;43.406;23.226;2022-11-18T01:40:10;98743.53;;;8.61;100.00
8941;BME280;4505;43.406;23.226;2022-11-18T01:42:37;98741.94;;;8.60;100.00
8941;BME280;4505;43.406;23.226;2022-11-18T01:45:05;98753.38;;;8.65;100.00
8941;BME280;4505;43.406;23.226;2022-11-18T01:47:48;98744.91;;;8.63;100.00
8941;BME280;4505;43.406;23.226;2022-11-18T01:50:17;98740.81;;;8.56;100.00
8941;BME280;4505;43.406;23.226;2022-11-18T01:52:45;98745.16;;;8.45;100.00
8941;BME280;4505;43.406;23.226;2022-11-18T01:55:13;98744.44;;;8.50;100.00
8941;BME280;4505;43.406;23.226;2022-11-18T01:57:43;98741.72;;;8.45;100.00
8941;BME280;4505;43.406;23.226;2022-11-18T02:00:11;98745.41;;;8.44;100.00
8941;BME280;4505;43.406;23.226;2022-11-18T02:02:38;98747.00;;;8.45;100.00
8941;BME280;4505;43.406;23.226;2022-11-18T02:05:18;98742.59;;;8.50;100.00
8941;BME280;4505;43.406;23.226;2022-11-18T02:07:46;98736.34;;;8.56;100.00
8941;BME280;4505;43.406;23.226;2022-11-18T02:10:17;98739.16;;;8.50;100.00
8941;BME280;4505;43.406;23.226;2022-11-18T02:12:57;98734.25;;;8.58;100.00
8941;BME280;4505;43.406;23.226;2022-11-18T02:15:27;98732.25;;;8.49;100.00
8941;BME280;4505;43.406;23.226;2022-11-18T02:17:59;98727.72;;;8.44;100.00
8941;BME280;4505;43.406;23.226;2022-11-18T02:20:45;98724.81;;;8.46;100.00
8941;BME280;4505;43.406;23.226;2022-11-18T02:23:29;98724.25;;;8.44;100.00
8941;BME280;4505;43.406;23.226;2022-11-18T02:26:04;98728.56;;;8.50;100.00
8941;BME280;4505;43.406;23.226;2022-11-18T02:28:36;98721.53;;;8.39;100.00
8941;BME280;4505;43.406;23.226;2022-11-18T02:31:09;98729.16;;;8.35;100.00
8941;BME280;4505;43.406;23.226;2022-11-18T02:33:38;98726.91;;;8.27;100.00
8941;BME280;4505;43.406;23.226;2022-11-18T02:36:10;98725.72;;;8.35;100.00
8941;BME280;4505;43.406;23.226;2022-11-18T02:38:40;98722.25;;;8.34;100.00
8941;BME280;4505;43.406;23.226;2022-11-18T02:41:08;98731.72;;;8.30;100.00
8941;BME280;4505;43.406;23.226;2022-11-18T02:43:37;98734.19;;;8.37;100.00
8941;BME280;4505;43.406;23.226;2022-11-18T02:46:08;98726.81;;;8.39;100.00
8941;BME280;4505;43.406;23.226;2022-11-18T02:48:39;98731.06;;;8.40;100.00
8941;BME280;4505;43.406;23.226;2022-11-18T02:51:07;98724.50;;;8.42;100.00
8941;BME280;4505;43.406;23.226;2022-11-18T02:53:35;98728.16;;;8.41;100.00
8941;BME280;4505;43.406;23.226;2022-11-18T02:56:03;98732.75;;;8.46;100.00
8941;BME280;4505;43.406;23.226;2022-11-18T02:58:30;98727.53;;;8.51;100.00
8941;BME280;4505;43.406;23.226;2022-11-18T03:00:57;98727.63;;;8.39;100.00
8941;BME280;4505;43.406;23.226;2022-11-18T03:03:26;98727.53;;;8.51;100.00
8941;BME280;4505;43.406;23.226;2022-11-18T03:05:57;98734.34;;;8.30;100.00
8941;BME280;4505;43.406;23.226;2022-11-18T03:08:24;98731.16;;;8.28;100.00
8941;BME280;4505;43.406;23.226;2022-11-18T03:10:57;98738.66;;;8.20;100.00
8941;BME280;4505;43.406;23.226;2022-11-18T03:13:27;98728.28;;;8.30;100.00
8941;BME280;4505;43.406;23.226;2022-11-18T03:16:00;98723.28;;;8.33;100.00
8941;BME280;4505;43.406;23.226;2022-11-18T03:18:29;98729.94;;;8.36;100.00
8941;BME280;4505;43.406;23.226;2022-11-18T03:21:14;98717.94;;;8.28;100.00
8941;BME280;4505;43.406;23.226;2022-11-18T03:23:44;98718.56;;;8.19;100.00
8941;BME280;4505;43.406;23.226;2022-11-18T03:26:13;98727.03;;;8.21;100.00
8941;BME280;4505;43.406;23.226;2022-11-18T03:28:47;98710.56;;;8.14;100.00
8941;BME280;4505;43.406;23.226;2022-11-18T03:31:19;98714.78;;;8.15;100.00
8941;BME280;4505;43.406;23.226;2022-11-18T03:33:51;98707.19;;;8.18;100.00
8941;BME280;4505;43.406;23.226;2022-11-18T03:36:19;98708.78;;;8.19;100.00
8941;BME280;4505;43.406;23.226;2022-11-18T03:38:48;98701.03;;;7.96;100.00
8941;BME280;4505;43.406;23.226;2022-11-18T03:41:16;98719.13;;;7.88;100.00
8941;BME280;4505;43.406;23.226;2022-11-18T03:43:47;98717.03;;;7.90;100.00
8941;BME280;4505;43.406;23.226;2022-11-18T03:46:18;98714.78;;;7.82;100.00
8941;BME280;4505;43.406;23.226;2022-11-18T03:48:46;98712.53;;;7.74;100.00
8941;BME280;4505;43.406;23.226;2022-11-18T03:51:17;98705.88;;;7.55;100.00
8941;BME280;4505;43.406;23.226;2022-11-18T03:53:47;98715.59;;;7.38;100.00
8941;BME280;4505;43.406;23.226;2022-11-18T03:56:16;98717.50;;;7.42;100.00
8941;BME280;4505;43.406;23.226;2022-11-18T03:58:46;98711.25;;;7.32;100.00
8941;BME280;4505;43.406;23.226;2022-11-18T04:01:15;98714.78;;;7.37;100.00
8941;BME280;4505;43.406;23.226;2022-11-18T04:03:43;98720.63;;;7.39;100.00
8941;BME280;4505;43.406;23.226;2022-11-18T04:06:14;98719.91;;;7.44;100.00
8941;BME280;4505;43.406;23.226;2022-11-18T04:08:46;98718.75;;;7.51;100.00
8941;BME280;4505;43.406;23.226;2022-11-18T04:11:16;98701.38;;;7.55;100.00
8941;BME280;4505;43.406;23.226;2022-11-18T04:13:59;98702.50;;;7.76;100.00
8941;BME280;4505;43.406;23.226;2022-11-18T04:16:26;98699.09;;;7.75;100.00
8941;BME280;4505;43.406;23.226;2022-11-18T04:18:53;98704.22;;;7.82;100.00
8941;BME280;4505;43.406;23.226;2022-11-18T04:21:19;98709.13;;;7.90;100.00
8941;BME280;4505;43.406;23.226;2022-11-18T04:23:47;98696.59;;;7.85;100.00
8941;BME280;4505;43.406;23.226;2022-11-18T04:26:14;98700.69;;;7.93;100.00
8941;BME280;4505;43.406;23.226;2022-11-18T04:28:42;98692.34;;;7.84;100.00
8941;BME280;4505;43.406;23.226;2022-11-18T04:31:08;98696.91;;;7.89;100.00
8941;BME280;4505;43.406;23.226;2022-11-18T04:33:35;98700.53;;;7.99;100.00
8941;BME280;4505;43.406;23.226;2022-11-18T04:36:01;98685.94;;;7.97;100.00
8941;BME280;4505;43.406;23.226;2022-11-18T04:38:28;98690.03;;;7.71;100.00
8941;BME280;4505;43.406;23.226;2022-11-18T04:40:56;98703.63;;;7.63;100.00
8941;BME280;4505;43.406;23.226;2022-11-18T04:43:22;98693.00;;;7.75;100.00
8941;BME280;4505;43.406;23.226;2022-11-18T04:45:49;98702.47;;;7.71;100.00
8941;BME280;4505;43.406;23.226;2022-11-18T04:48:15;98699.25;;;7.69;100.00
8941;BME280;4505;43.406;23.226;2022-11-18T04:50:43;98701.38;;;7.55;100.00
8941;BME280;4505;43.406;23.226;2022-11-18T04:53:10;98691.38;;;7.57;100.00
8941;BME280;4505;43.406;23.226;2022-11-18T04:55:38;98694.66;;;7.48;100.00
8941;BME280;4505;43.406;23.226;2022-11-18T04:58:06;98698.72;;;7.39;100.00
8941;BME280;4505;43.406;23.226;2022-11-18T05:00:32;98699.22;;;7.52;100.00
8941;BME280;4505;43.406;23.226;2022-11-18T05:02:59;98696.09;;;7.55;100.00
8941;BME280;4505;43.406;23.226;2022-11-18T05:05:25;98688.59;;;7.36;100.00
8941;BME280;4505;43.406;23.226;2022-11-18T05:07:52;98699.94;;;7.48;100.00
8941;BME280;4505;43.406;23.226;2022-11-18T05:10:19;98698.97;;;7.54;100.00
8941;BME280;4505;43.406;23.226;2022-11-18T05:12:46;98694.94;;;7.63;100.00
8941;BME280;4505;43.406;23.226;2022-11-18T05:15:16;98697.09;;;7.66;100.00
8941;BME280;4505;43.406;23.226;2022-11-18T05:17:43;98706.06;;;7.81;100.00
8941;BME280;4505;43.406;23.226;2022-11-18T05:20:10;98709.41;;;7.60;100.00
8941;BME280;4505;43.406;23.226;2022-11-18T05:22:37;98713.56;;;7.73;100.00
8941;BME280;4505;43.406;23.226;2022-11-18T05:25:05;98716.13;;;7.68;100.00
8941;BME280;4505;43.406;23.226;2022-11-18T05:27:31;98718.31;;;7.71;100.00
8941;BME280;4505;43.406;23.226;2022-11-18T05:29:58;98720.34;;;7.52;100.00
8941;BME280;4505;43.406;23.226;2022-11-18T05:32:26;98712.22;;;7.42;100.00
8941;BME280;4505;43.406;23.226;2022-11-18T05:34:52;98713.50;;;7.40;100.00
8941;BME280;4505;43.406;23.226;2022-11-18T05:37:19;98713.84;;;7.43;100.00
8941;BME280;4505;43.406;23.226;2022-11-18T05:39:45;98710.97;;;7.61;100.00
8941;BME280;4505;43.406;23.226;2022-11-18T05:42:12;98702.84;;;7.79;100.00
8941;BME280;4505;43.406;23.226;2022-11-18T05:44:56;98705.34;;;8.02;100.00
8941;BME280;4505;43.406;23.226;2022-11-18T05:47:23;98693.88;;;7.97;100.00
8941;BME280;4505;43.406;23.226;2022-11-18T05:49:51;98698.22;;;7.86;100.00
8941;BME280;4505;43.406;23.226;2022-11-18T05:52:18;98686.03;;;8.02;100.00
8941;BME280;4505;43.406;23.226;2022-11-18T05:54:46;98684.59;;;8.11;100.00
8941;BME280;4505;43.406;23.226;2022-11-18T05:57:13;98687.47;;;8.26;100.00
8941;BME280;4505;43.406;23.226;2022-11-18T05:59:39;98688.88;;;8.50;100.00
8941;BME280;4505;43.406;23.226;2022-11-18T06:02:06;98680.66;;;8.68;100.00
8941;BME280;4505;43.406;23.226;2022-11-18T06:04:37;98676.03;;;8.80;100.00
8941;BME280;4505;43.406;23.226;2022-11-18T06:07:08;98686.31;;;8.98;100.00
8941;BME280;4505;43.406;23.226;2022-11-18T06:09:38;98693.69;;;8.96;100.00
8941;BME280;4505;43.406;23.226;2022-11-18T06:12:08;98692.78;;;8.86;100.00
8941;BME280;4505;43.406;23.226;2022-11-18T06:14:40;98689.28;;;9.02;100.00
8941;BME280;4505;43.406;23.226;2022-11-18T06:17:09;98687.16;;;9.25;100.00
8941;BME280;4505;43.406;23.226;2022-11-18T06:19:36;98689.91;;;8.87;100.00
8941;BME280;4505;43.406;23.226;2022-11-18T06:22:03;98687.56;;;8.91;100.00
8941;BME280;4505;43.406;23.226;2022-11-18T06:24:32;98694.25;;;8.98;100.00
8941;BME280;4505;43.406;23.226;2022-11-18T06:26:58;98696.13;;;8.76;100.00
8941;BME280;4505;43.406;23.226;2022-11-18T06:29:25;98703.50;;;8.96;100.00
8941;BME280;4505;43.406;23.226;2022-11-18T06:31:53;98689.16;;;9.13;100.00
8941;BME280;4505;43.406;23.226;2022-11-18T06:34:19;98693.69;;;9.44;100.00
8941;BME280;4505;43.406;23.226;2022-11-18T06:36:46;98690.56;;;9.47;100.00
8941;BME280;4505;43.406;23.226;2022-11-18T06:39:12;98694.91;;;9.58;100.00
8941;BME280;4505;43.406;23.226;2022-11-18T06:41:40;98683.19;;;9.54;100.00
8941;BME280;4505;43.406;23.226;2022-11-18T06:44:07;98683.09;;;10.02;100.00
8941;BME280;4505;43.406;23.226;2022-11-18T06:46:32;98678.88;;;10.06;100.00
8941;BME280;4505;43.406;23.226;2022-11-18T06:49:16;98684.94;;;10.02;100.00
8941;BME280;4505;43.406;23.226;2022-11-18T06:51:43;98687.41;;;10.08;100.00
8941;BME280;4505;43.406;23.226;2022-11-18T06:54:09;98681.75;;;10.37;100.00
8941;BME280;4505;43.406;23.226;2022-11-18T06:56:36;98679.25;;;10.20;100.00
8941;BME280;4505;43.406;23.226;2022-11-18T06:59:04;98667.84;;;10.66;100.00
8941;BME280;4505;43.406;23.226;2022-11-18T07:01:33;98683.28;;;10.74;100.00
8941;BME280;4505;43.406;23.226;2022-11-18T07:04:00;98675.03;;;10.66;100.00
8941;BME280;4505;43.406;23.226;2022-11-18T07:06:39;98679.16;;;11.03;100.00
8941;BME280;4505;43.406;23.226;2022-11-18T07:09:06;98673.78;;;10.83;100.00
8941;BME280;4505;43.406;23.226;2022-11-18T07:11:33;98667.25;;;11.11;100.00
8941;BME280;4505;43.406;23.226;2022-11-18T07:14:02;98676.28;;;11.15;100.00
8941;BME280;4505;43.406;23.226;2022-11-18T07:16:30;98673.72;;;11.60;100.00
8941;BME280;4505;43.406;23.226;2022-11-18T07:18:57;98669.50;;;11.84;100.00
8941;BME280;4505;43.406;23.226;2022-11-18T07:21:24;98666.78;;;11.49;100.00
8941;BME280;4505;43.406;23.226;2022-11-18T07:23:51;98678.63;;;10.96;100.00
8941;BME280;4505;43.406;23.226;2022-11-18T07:26:18;98665.72;;;11.60;100.00
8941;BME280;4505;43.406;23.226;2022-11-18T07:28:44;98666.03;;;12.09;100.00
8941;BME280;4505;43.406;23.226;2022-11-18T07:31:12;98645.44;;;12.49;100.00
8941;BME280;4505;43.406;23.226;2022-11-18T07:33:40;98649.44;;;12.62;100.00
8941;BME280;4505;43.406;23.226;2022-11-18T07:36:08;98656.09;;;12.49;100.00
8941;BME280;4505;43.406;23.226;2022-11-18T07:38:34;98649.34;;;12.82;100.00
8941;BME280;4505;43.406;23.226;2022-11-18T07:41:02;98638.75;;;13.26;100.00
8941;BME280;4505;43.406;23.226;2022-11-18T07:43:29;98644.69;;;13.13;100.00
8941;BME280;4505;43.406;23.226;2022-11-18T07:45:55;98640.59;;;13.30;100.00
8941;BME280;4505;43.406;23.226;2022-11-18T07:48:22;98632.31;;;13.32;100.00
8941;BME280;4505;43.406;23.226;2022-11-18T07:50:50;98634.13;;;13.36;100.00
8941;BME280;4505;43.406;23.226;2022-11-18T07:53:18;98634.13;;;13.41;100.00
8941;BME280;4505;43.406;23.226;2022-11-18T07:55:44;98639.72;;;13.40;100.00
8941;BME280;4505;43.406;23.226;2022-11-18T07:58:11;98631.56;;;13.65;100.00
8941;BME280;4505;43.406;23.226;2022-11-18T08:00:37;98624.03;;;14.00;100.00
8941;BME280;4505;43.406;23.226;2022-11-18T08:03:04;98619.69;;;13.81;100.00
8941;BME280;4505;43.406;23.226;2022-11-18T08:05:31;98613.75;;;14.17;100.00
8941;BME280;4505;43.406;23.226;2022-11-18T08:07:58;98613.09;;;14.54;100.00
8941;BME280;4505;43.406;23.226;2022-11-18T08:10:25;98611.38;;;14.63;100.00
8941;BME280;4505;43.406;23.226;2022-11-18T08:12:54;98609.44;;;14.69;100.00
8941;BME280;4505;43.406;23.226;2022-11-18T08:15:21;98605.50;;;15.03;100.00
8941;BME280;4505;43.406;23.226;2022-11-18T08:17:54;98601.31;;;14.97;100.00
8941;BME280;4505;43.406;23.226;2022-11-18T08:20:20;98598.28;;;15.22;100.00
8941;BME280;4505;43.406;23.226;2022-11-18T08:22:51;98593.47;;;15.43;100.00
8941;BME280;4505;43.406;23.226;2022-11-18T08:25:19;98587.34;;;15.42;100.00
8941;BME280;4505;43.406;23.226;2022-11-18T08:27:46;98575.47;;;15.48;100.00
8941;BME280;4505;43.406;23.226;2022-11-18T08:30:13;98560.53;;;15.61;100.00
8941;BME280;4505;43.406;23.226;2022-11-18T08:32:39;98570.19;;;15.25;100.00
8941;BME280;4505;43.406;23.226;2022-11-18T08:35:20;98550.84;;;15.65;100.00
8941;BME280;4505;43.406;23.226;2022-11-18T08:38:00;98546.00;;;15.81;100.00
8941;BME280;4505;43.406;23.226;2022-11-18T08:40:27;98544.09;;;15.67;100.00
8941;BME280;4505;43.406;23.226;2022-11-18T08:42:54;98533.31;;;15.72;100.00
8941;BME280;4505;43.406;23.226;2022-11-18T08:45:21;98525.81;;;15.42;100.00
8941;BME280;4505;43.406;23.226;2022-11-18T08:47:47;98517.69;;;15.29;100.00
8941;BME280;4505;43.406;23.226;2022-11-18T08:50:14;98516.47;;;15.86;100.00
8941;BME280;4505;43.406;23.226;2022-11-18T08:52:41;98506.09;;;16.25;100.00
8941;BME280;4505;43.406;23.226;2022-11-18T08:55:08;98510.66;;;16.51;100.00
8941;BME280;4505;43.406;23.226;2022-11-18T08:57:36;98501.16;;;16.81;100.00
8941;BME280;4505;43.406;23.226;2022-11-18T09:00:03;98504.47;;;17.00;100.00
8941;BME280;4505;43.406;23.226;2022-11-18T09:02:30;98507.38;;;16.90;100.00
8941;BME280;4505;43.406;23.226;2022-11-18T09:04:56;98499.53;;;16.58;100.00
8941;BME280;4505;43.406;23.226;2022-11-18T09:07:23;98503.22;;;16.62;100.00
8941;BME280;4505;43.406;23.226;2022-11-18T09:09:50;98506.09;;;17.45;100.00
8941;BME280;4505;43.406;23.226;2022-11-18T09:12:16;98502.75;;;17.70;100.00
8941;BME280;4505;43.406;23.226;2022-11-18T09:14:44;98506.44;;;18.13;100.00
8941;BME280;4505;43.406;23.226;2022-11-18T09:17:11;98498.06;;;18.71;100.00
8941;BME280;4505;43.406;23.226;2022-11-18T09:19:38;98498.53;;;18.90;100.00
8941;BME280;4505;43.406;23.226;2022-11-18T09:22:05;98501.06;;;18.95;100.00
8941;BME280;4505;43.406;23.226;2022-11-18T09:24:32;98507.59;;;19.03;100.00
8941;BME280;4505;43.406;23.226;2022-11-18T09:27:08;98495.56;;;19.43;100.00
8941;BME280;4505;43.406;23.226;2022-11-18T09:29:41;98483.19;;;19.42;100.00
8941;BME280;4505;43.406;23.226;2022-11-18T09:32:09;98469.94;;;19.83;100.00
8941;BME280;4505;43.406;23.226;2022-11-18T09:34:35;98471.44;;;19.55;100.00
8941;BME280;4505;43.406;23.226;2022-11-18T09:37:02;98467.03;;;19.25;100.00
8941;BME280;4505;43.406;23.226;2022-11-18T09:39:30;98455.19;;;19.80;100.00
8941;BME280;4505;43.406;23.226;2022-11-18T09:41:59;98459.00;;;19.79;100.00
8941;BME280;4505;43.406;23.226;2022-11-18T09:44:32;98448.19;;;19.88;100.00
8941;BME280;4505;43.406;23.226;2022-11-18T09:47:04;98431.00;;;20.01;100.00
8941;BME280;4505;43.406;23.226;2022-11-18T09:49:35;98429.28;;;20.55;100.00
8941;BME280;4505;43.406;23.226;2022-11-18T09:52:03;98417.03;;;20.78;98.40
8941;BME280;4505;43.406;23.226;2022-11-18T09:54:32;98412.59;;;21.14;96.85
8941;BME280;4505;43.406;23.226;2022-11-18T09:56:59;98416.53;;;21.17;88.88
8941;BME280;4505;43.406;23.226;2022-11-18T09:59:36;98412.16;;;20.92;86.56
8941;BME280;4505;43.406;23.226;2022-11-18T10:02:10;98412.09;;;21.00;74.90
8941;BME280;4505;43.406;23.226;2022-11-18T10:04:45;98415.75;;;21.16;68.43
8941;BME280;4505;43.406;23.226;2022-11-18T10:07:13;98414.97;;;21.16;67.04
8941;BME280;4505;43.406;23.226;2022-11-18T10:09:40;98420.31;;;20.83;62.88
8941;BME280;4505;43.406;23.226;2022-11-18T10:12:13;98409.75;;;21.44;62.33
8941;BME280;4505;43.406;23.226;2022-11-18T10:17:33;98404.44;;;21.92;58.03
8941;BME280;4505;43.406;23.226;2022-11-18T10:20:10;98397.56;;;22.70;53.41
8941;BME280;4505;43.406;23.226;2022-11-18T10:22:40;98390.78;;;23.19;49.54
8941;BME280;4505;43.406;23.226;2022-11-18T10:25:13;98378.13;;;23.23;48.07
8941;BME280;4505;43.406;23.226;2022-11-18T10:27:48;98369.16;;;23.35;49.27
8941;BME280;4505;43.406;23.226;2022-11-18T10:30:15;98363.34;;;24.14;47.48
8941;BME280;4505;43.406;23.226;2022-11-18T10:32:52;98359.41;;;24.46;45.16
8941;BME280;4505;43.406;23.226;2022-11-18T10:35:23;98351.69;;;24.29;42.89
8941;BME280;4505;43.406;23.226;2022-11-18T10:37:58;98343.94;;;24.31;43.28
8941;BME280;4505;43.406;23.226;2022-11-18T10:40:27;98342.59;;;24.22;42.53
8941;BME280;4505;43.406;23.226;2022-11-18T10:42:59;98337.84;;;24.34;42.28
8941;BME280;4505;43.406;23.226;2022-11-18T10:45:30;98340.56;;;23.84;43.79
8941;BME280;4505;43.406;23.226;2022-11-18T10:48:00;98331.41;;;23.73;43.93
8941;BME280;4505;43.406;23.226;2022-11-18T10:50:30;98329.91;;;23.29;45.00
8941;BME280;4505;43.406;23.226;2022-11-18T10:52:57;98332.66;;;23.44;44.07
8941;BME280;4505;43.406;23.226;2022-11-18T10:55:24;98334.34;;;23.83;43.56
8941;BME280;4505;43.406;23.226;2022-11-18T10:57:53;98334.81;;;23.70;44.09
8941;BME280;4505;43.406;23.226;2022-11-18T11:03:24;98321.78;;;23.75;44.48
8941;BME280;4505;43.406;23.226;2022-11-18T11:08:41;98311.59;;;23.88;44.29
8941;BME280;4505;43.406;23.226;2022-11-18T11:11:15;98321.47;;;23.96;44.56
8941;BME280;4505;43.406;23.226;2022-11-18T11:13:50;98313.31;;;23.61;44.22
8941;BME280;4505;43.406;23.226;2022-11-18T11:16:17;98310.28;;;23.47;44.05
8941;BME280;4505;43.406;23.226;2022-11-18T11:18:45;98315.50;;;23.40;44.43
8941;BME280;4505;43.406;23.226;2022-11-18T11:21:16;98300.09;;;23.13;45.60
8941;BME280;4505;43.406;23.226;2022-11-18T11:23:45;98303.31;;;23.19;45.00
8941;BME280;4505;43.406;23.226;2022-11-18T11:26:15;98306.31;;;23.76;43.98
8941;BME280;4505;43.406;23.226;2022-11-18T11:28:48;98290.22;;;23.67;43.53
8941;BME280;4505;43.406;23.226;2022-11-18T11:31:19;98286.50;;;23.41;44.65
8941;BME280;4505;43.406;23.226;2022-11-18T11:33:48;98292.19;;;23.36;45.30
8941;BME280;4505;43.406;23.226;2022-11-18T11:36:34;98275.91;;;23.20;46.20
8941;BME280;4505;43.406;23.226;2022-11-18T11:39:13;98286.78;;;22.77;47.56
8941;BME280;4505;43.406;23.226;2022-11-18T11:41:47;98286.47;;;23.10;46.68
8941;BME280;4505;43.406;23.226;2022-11-18T11:44:21;98286.78;;;22.77;47.93
8941;BME280;4505;43.406;23.226;2022-11-18T11:46:55;98279.25;;;23.29;46.95
8941;BME280;4505;43.406;23.226;2022-11-18T11:49:46;98276.44;;;23.41;46.59
8941;BME280;4505;43.406;23.226;2022-11-18T11:52:15;98263.50;;;23.04;47.66
8941;BME280;4505;43.406;23.226;2022-11-18T11:54:46;98258.75;;;22.70;49.26
8941;BME280;4505;43.406;23.226;2022-11-18T11:57:20;98257.38;;;22.48;50.83
8941;BME280;4505;43.406;23.226;2022-11-18T11:59:51;98264.72;;;22.47;50.25
8941;BME280;4505;43.406;23.226;2022-11-18T12:02:32;98259.53;;;22.42;50.44
8941;BME280;4505;43.406;23.226;2022-11-18T12:05:06;98259.75;;;22.10;51.07
8941;BME280;4505;43.406;23.226;2022-11-18T12:07:37;98269.53;;;21.51;55.23
8941;BME280;4505;43.406;23.226;2022-11-18T12:10:16;98273.00;;;21.15;59.93
8941;BME280;4505;43.406;23.226;2022-11-18T12:12:48;98264.38;;;21.09;61.48
8941;BME280;4505;43.406;23.226;2022-11-18T12:15:30;98268.41;;;21.15;65.29
8941;BME280;4505;43.406;23.226;2022-11-18T12:18:02;98260.22;;;21.24;62.75
8941;BME280;4505;43.406;23.226;2022-11-18T12:20:37;98267.06;;;21.34;64.34
8941;BME280;4505;43.406;23.226;2022-11-18T12:23:11;98260.31;;;21.40;65.76
8941;BME280;4505;43.406;23.226;2022-11-18T12:25:51;98254.00;;;21.48;66.24
8941;BME280;4505;43.406;23.226;2022-11-18T12:28:21;98246.22;;;21.58;65.91
8941;BME280;4505;43.406;23.226;2022-11-18T12:30:48;98246.38;;;21.50;66.94
8941;BME280;4505;43.406;23.226;2022-11-18T12:33:16;98249.63;;;21.43;68.42
8941;BME280;4505;43.406;23.226;2022-11-18T12:35:45;98231.75;;;21.39;66.44
8941;BME280;4505;43.406;23.226;2022-11-18T12:38:26;98232.75;;;21.46;67.71
8941;BME280;4505;43.406;23.226;2022-11-18T12:40:54;98225.88;;;21.61;64.41
8941;BME280;4505;43.406;23.226;2022-11-18T12:51:46;98221.88;;;21.94;62.23
8941;BME280;4505;43.406;23.226;2022-11-18T12:54:14;98213.81;;;22.10;60.61
8941;BME280;4505;43.406;23.226;2022-11-18T12:56:47;98214.50;;;22.07;61.25
8941;BME280;4505;43.406;23.226;2022-11-18T12:59:15;98215.00;;;22.24;60.38
8941;BME280;4505;43.406;23.226;2022-11-18T13:01:41;98229.56;;;22.20;57.33
8941;BME280;4505;43.406;23.226;2022-11-18T13:04:10;98234.66;;;21.58;61.28
8941;BME280;4505;43.406;23.226;2022-11-18T13:06:37;98242.00;;;20.11;100.00
8941;BME280;4505;43.406;23.226;2022-11-18T13:09:06;98242.88;;;19.82;100.00
8941;BME280;4505;43.406;23.226;2022-11-18T13:11:39;98244.47;;;18.88;100.00
8941;BME280;4505;43.406;23.226;2022-11-18T13:14:14;98261.78;;;17.84;100.00
8941;BME280;4505;43.406;23.226;2022-11-18T13:16:59;98258.28;;;17.50;100.00
8941;BME280;4505;43.406;23.226;2022-11-18T13:19:52;98282.69;;;17.00;100.00
8941;BME280;4505;43.406;23.226;2022-11-18T13:22:20;98285.22;;;16.97;100.00
8941;BME280;4505;43.406;23.226;2022-11-18T13:25:04;98264.47;;;16.80;100.00
8941;BME280;4505;43.406;23.226;2022-11-18T13:27:34;98258.16;;;16.10;100.00
8941;BME280;4505;43.406;23.226;2022-11-18T13:30:08;98282.50;;;15.87;100.00
8941;BME280;4505;43.406;23.226;2022-11-18T13:32:35;98254.78;;;16.27;100.00
8941;BME280;4505;43.406;23.226;2022-11-18T13:35:11;98263.09;;;15.81;100.00
8941;BME280;4505;43.406;23.226;2022-11-18T13:37:46;98264.16;;;15.44;100.00